Time;durP1;ratioP1;P1;durP2;ratioP2;P2;SDS_P1;SDS_P2;PMS_P1;PMS_P2;Temp;Humidity;BMP_temperature;BMP_pressure;BME280_temperature;BME280_humidity;BME280_pressure;Samples;Min_cycle;Max_cycle;Signal;HPM_P1;HPM_P2
2022/01/28 00:03:00;;;;;;;11.70;3.40;;;;;;;3.67;81.63;99895.45;1773435;80;21125;-72
2022/01/28 00:05:23;;;;;;;14.78;4.08;;;;;;;3.60;81.54;99900.08;1781577;79;21575;-72
2022/01/28 00:07:50;;;;;;;14.00;3.92;;;;;;;3.52;81.47;99896.33;1824803;77;21269;-72
2022/01/28 00:10:17;;;;;;;10.90;4.62;;;;;;;3.47;81.36;99897.25;1823303;77;21049;-72
2022/01/28 00:13:05;;;;;;;10.75;4.05;;;;;;;3.42;81.29;99903.40;1858983;77;21567;-72
2022/01/28 00:15:19;;;;;;;12.82;4.80;;;;;;;3.37;81.28;99902.99;1831373;77;21050;-72
2022/01/28 00:36:42;;;;;;;10.28;2.30;;;;;;;3.29;81.41;99863.30;1814606;78;21046;-72
2022/01/28 00:38:55;;;;;;;20.23;3.50;;;;;;;3.26;81.47;99879.39;1813457;78;20972;-72
2022/01/28 00:41:21;;;;;;;14.98;2.85;;;;;;;3.26;81.51;99875.92;1825067;78;21022;-73
2022/01/28 00:43:47;;;;;;;7.00;1.82;;;;;;;3.22;81.57;99871.89;1786239;80;20997;-72
2022/01/28 00:46:13;;;;;;;12.78;3.25;;;;;;;3.23;81.61;99884.94;1759979;81;21041;-72
2022/01/28 00:48:40;;;;;;;10.35;2.60;;;;;;;3.30;81.66;99893.97;1792402;78;21712;-72
2022/01/28 00:51:06;;;;;;;7.65;2.90;;;;;;;3.34;81.68;99890.06;1793062;80;20966;-72
2022/01/28 00:53:32;;;;;;;18.25;5.22;;;;;;;3.40;81.68;99894.81;1813168;78;21041;-73
2022/01/28 00:55:58;;;;;;;14.13;3.40;;;;;;;3.46;81.68;99907.91;1792663;80;20997;-72
2022/01/28 00:58:24;;;;;;;14.18;3.90;;;;;;;3.53;81.66;99903.28;1792884;80;21038;-73
2022/01/28 01:00:51;;;;;;;16.07;3.55;;;;;;;3.59;81.62;99907.67;1792862;78;21018;-72
2022/01/28 01:03:17;;;;;;;18.80;3.77;;;;;;;3.61;81.59;99909.67;1813030;78;21106;-72
2022/01/28 01:05:43;;;;;;;9.08;1.95;;;;;;;3.61;81.59;99905.72;1792820;78;21502;-72
2022/01/28 01:08:09;;;;;;;14.55;2.30;;;;;;;3.61;81.58;99905.72;1801640;78;20971;-72
2022/01/28 01:10:35;;;;;;;11.25;1.95;;;;;;;3.60;81.52;99913.27;1803741;78;21150;-72
2022/01/28 01:13:02;;;;;;;16.57;3.45;;;;;;;3.57;81.50;99905.64;1798908;78;20947;-72
2022/01/28 01:15:34;;;;;;;10.58;1.92;;;;;;;3.56;81.48;99923.73;1792866;80;20967;-72
2022/01/28 01:18:03;;;;;;;7.30;1.57;;;;;;;3.51;81.50;99928.12;1799666;78;21007;-72
2022/01/28 01:23:04;;;;;;;6.83;2.30;;;;;;;3.49;81.52;99919.02;1799216;78;21350;-72
2022/01/28 01:25:26;;;;;;;11.53;2.45;;;;;;;3.49;81.53;99920.81;1783299;80;21045;-72
2022/01/28 01:27:52;;;;;;;13.83;3.75;;;;;;;3.45;81.57;99921.57;1794052;78;21447;-72
2022/01/28 01:30:17;;;;;;;8.58;3.77;;;;;;;3.44;81.60;99926.52;1764786;79;21010;-72
2022/01/28 01:32:43;;;;;;;13.50;2.72;;;;;;;3.40;81.61;99921.16;1812086;78;20955;-72
2022/01/28 01:35:09;;;;;;;12.82;2.67;;;;;;;3.38;81.63;99928.36;1792826;78;21443;-72
2022/01/28 01:37:35;;;;;;;12.47;4.25;;;;;;;3.36;81.66;99935.58;1768498;79;20932;-72
2022/01/28 01:40:02;;;;;;;10.13;2.47;;;;;;;3.37;81.71;99939.89;1809438;78;20985;-72
2022/01/28 01:42:52;;;;;;;11.10;2.80;;;;;;;3.33;81.75;99945.55;1778658;80;21498;-72
2022/01/28 01:53:23;;;;;;;9.10;2.25;;;;;;;3.27;81.98;99965.86;1792769;80;21502;-73
2022/01/28 01:55:49;;;;;;;10.43;1.65;;;;;;;3.26;82.02;99962.39;1813552;78;21527;-73
2022/01/28 01:58:15;;;;;;;24.00;6.72;;;;;;;3.26;82.09;99956.28;1785000;80;21002;-73
2022/01/28 02:00:41;;;;;;;7.60;1.70;;;;;;;3.23;82.14;99969.25;1792713;80;21153;-73
2022/01/28 02:03:07;;;;;;;12.50;2.25;;;;;;;3.20;82.20;99966.86;1816969;78;20979;-73
2022/01/28 02:05:33;;;;;;;11.00;2.30;;;;;;;3.16;82.27;99979.97;1781242;80;21128;-73
2022/01/28 02:08:05;;;;;;;8.10;3.08;;;;;;;3.13;82.36;99985.48;1792690;79;21612;-73
2022/01/28 02:10:27;;;;;;;11.70;2.92;;;;;;;3.08;82.44;99978.48;1811734;78;21017;-73
2022/01/28 02:12:53;;;;;;;9.08;3.42;;;;;;;3.08;82.49;99974.52;1785212;80;21175;-73
2022/01/28 02:15:19;;;;;;;10.85;3.10;;;;;;;3.08;82.58;99984.22;1792924;80;21010;-73
2022/01/28 02:17:45;;;;;;;15.72;4.20;;;;;;;3.06;82.67;99983.05;1772152;80;21017;-73
2022/01/28 02:20:21;;;;;;;17.85;2.87;;;;;;;3.05;82.73;99985.81;1786094;79;21038;-73
2022/01/28 02:22:46;;;;;;;42.13;13.80;;;;;;;3.05;82.84;99989.28;1787015;80;21455;-72
2022/01/28 02:25:27;;;;;;;13.15;4.50;;;;;;;3.05;82.90;100001.13;1805495;78;22134;-72
2022/01/28 02:27:56;;;;;;;13.08;2.70;;;;;;;3.03;82.96;99997.78;1777123;80;21451;-72
2022/01/28 02:30:22;;;;;;;8.33;2.40;;;;;;;3.03;83.04;99990.72;1781525;80;21018;-72
2022/01/28 02:32:49;;;;;;;16.50;5.35;;;;;;;3.06;83.09;100001.49;1777164;78;20851;-72
2022/01/28 02:35:15;;;;;;;15.43;3.40;;;;;;;3.08;83.16;100004.81;1783963;80;20966;-72
2022/01/28 02:37:41;;;;;;;18.27;4.12;;;;;;;3.09;83.19;99998.59;1792947;80;21776;-72
2022/01/28 02:40:08;;;;;;;12.55;2.65;;;;;;;3.10;83.24;100010.77;1798502;79;21007;-72
2022/01/28 02:42:59;;;;;;;16.62;3.05;;;;;;;3.14;83.29;100000.33;1801893;79;21057;-72
2022/01/28 02:45:08;;;;;;;12.05;2.65;;;;;;;3.16;83.30;100001.05;1787593;78;21002;-72
2022/01/28 02:47:37;;;;;;;15.15;3.35;;;;;;;3.17;83.36;100009.28;1784705;79;21495;-72
2022/01/28 02:50:03;;;;;;;13.93;3.17;;;;;;;3.22;83.37;100015.00;1792903;78;21258;-72
2022/01/28 02:52:42;;;;;;;14.70;3.15;;;;;;;3.24;83.37;100006.47;1773590;80;21063;-72
2022/01/28 02:55:09;;;;;;;18.48;4.00;;;;;;;3.30;83.38;100010.39;1809963;78;21510;-72
2022/01/28 02:57:34;;;;;;;14.55;3.58;;;;;;;3.33;83.36;100017.55;1768586;80;20978;-72
2022/01/28 03:00:00;;;;;;;12.47;4.25;;;;;;;3.37;83.34;100021.59;1792644;80;20986;-72
2022/01/28 03:02:26;;;;;;;8.88;3.15;;;;;;;3.38;83.31;100020.59;1806757;78;21165;-72
2022/01/28 03:07:30;;;;;;;12.33;3.37;;;;;;;3.40;83.22;100016.04;1822663;78;20975;-72
2022/01/28 03:12:36;;;;;;;12.05;2.50;;;;;;;3.47;83.09;100030.35;1808268;78;21565;-72
2022/01/28 03:15:03;;;;;;;12.55;2.52;;;;;;;3.51;83.02;100042.30;1791961;80;21258;-72
2022/01/28 03:20:17;;;;;;;21.82;4.62;;;;;;;3.53;82.91;100040.36;1807088;78;21017;-72
2022/01/28 03:22:28;;;;;;;11.70;2.30;;;;;;;3.53;82.86;100048.27;1789243;80;21006;-72
2022/01/28 03:24:57;;;;;;;17.20;3.67;;;;;;;3.53;82.86;100048.27;1822794;78;21633;-72
2022/01/28 03:27:44;;;;;;;18.37;3.27;;;;;;;3.57;82.71;100047.52;1814272;78;21333;-72
2022/01/28 03:29:50;;;;;;;13.88;3.75;;;;;;;3.58;82.63;100057.09;1787009;80;21499;-72
2022/01/28 03:32:16;;;;;;;19.15;3.45;;;;;;;3.59;82.56;100052.66;1792755;80;21561;-72
2022/01/28 03:34:42;;;;;;;19.25;4.45;;;;;;;3.62;82.45;100061.62;1788112;80;21042;-72
2022/01/28 03:37:09;;;;;;;18.15;3.85;;;;;;;3.64;82.36;100072.38;1768052;79;21321;-72
2022/01/28 03:39:35;;;;;;;23.47;6.05;;;;;;;3.65;82.29;100069.26;1793033;78;21109;-72
2022/01/28 03:42:04;;;;;;;23.60;3.72;;;;;;;3.67;82.19;100078.69;1801272;78;21465;-72
2022/01/28 03:44:30;;;;;;;14.70;2.77;;;;;;;3.69;82.09;100076.77;1824862;78;20972;-72
2022/01/28 03:46:56;;;;;;;16.52;4.65;;;;;;;3.71;82.01;100081.89;1825042;78;20967;-72
2022/01/28 03:49:22;;;;;;;19.42;5.75;;;;;;;3.72;81.90;100083.58;1825017;78;21078;-72
2022/01/28 03:51:48;;;;;;;18.80;4.75;;;;;;;3.73;81.83;100079.98;1825046;78;21148;-72
2022/01/28 03:54:14;;;;;;;18.85;3.37;;;;;;;3.72;81.72;100086.21;1816709;78;21021;-72
2022/01/28 03:56:40;;;;;;;14.05;3.42;;;;;;;3.73;81.62;100086.57;1793109;78;21550;-72
2022/01/28 03:59:06;;;;;;;20.00;3.92;;;;;;;3.69;81.52;100089.96;1792875;80;21416;-72
2022/01/28 04:01:36;;;;;;;19.87;3.87;;;;;;;3.67;81.42;100092.36;1793253;78;20993;-72
2022/01/28 04:04:32;;;;;;;14.15;2.42;;;;;;;3.63;81.39;100081.72;1815046;78;21305;-72
2022/01/28 04:11:58;;;;;;;13.93;3.10;;;;;;;3.56;81.25;100089.33;1818090;78;20955;-72
2022/01/28 04:14:45;;;;;;;20.32;3.65;;;;;;;3.58;81.20;100089.22;1792583;78;20982;-72
2022/01/28 04:19:34;;;;;;;13.38;5.10;;;;;;;3.64;81.03;100080.77;1793159;78;20978;-72
2022/01/28 04:22:00;;;;;;;13.55;3.47;;;;;;;3.61;80.97;100076.59;1794810;78;21578;-72
2022/01/28 04:24:26;;;;;;;16.07;3.67;;;;;;;3.66;80.81;100093.34;1811256;78;21014;-72
2022/01/28 04:26:52;;;;;;;17.07;4.00;;;;;;;3.70;80.73;100099.99;1792976;78;21021;-72
2022/01/28 04:29:18;;;;;;;24.85;4.50;;;;;;;3.71;80.61;100108.27;1795116;78;21112;-72
2022/01/28 04:31:47;;;;;;;19.95;4.70;;;;;;;3.76;80.47;100106.91;1792836;78;20993;-72
2022/01/28 04:34:16;;;;;;;34.73;9.10;;;;;;;3.79;80.28;100104.48;1795253;78;21452;-72
2022/01/28 04:39:26;;;;;;;15.08;3.75;;;;;;;3.86;79.85;100102.98;1825236;78;21541;-72
2022/01/28 04:41:59;;;;;;;9.80;2.55;;;;;;;3.87;79.68;100127.08;1796024;78;21178;-72
2022/01/28 04:44:28;;;;;;;16.52;3.85;;;;;;;3.89;79.52;100114.09;1790891;79;20967;-72
2022/01/28 04:46:52;;;;;;;45.33;12.80;;;;;;;3.92;79.34;100138.88;1791350;78;21034;-72
2022/01/28 04:49:22;;;;;;;16.95;3.22;;;;;;;3.93;79.26;100135.28;1805038;78;21495;-72
2022/01/28 04:52:09;;;;;;;16.10;3.70;;;;;;;3.92;79.10;100128.81;1823927;78;21011;-72
2022/01/28 04:57:15;;;;;;;15.38;3.65;;;;;;;3.92;78.86;100126.17;1822992;78;20995;-72
2022/01/28 05:00:17;;;;;;;18.15;5.65;;;;;;;3.89;78.71;100131.24;1802594;78;20998;-72
2022/01/28 05:10:30;;;;;;;27.35;7.40;;;;;;;3.89;78.15;100160.26;1773370;79;21065;-72
2022/01/28 05:28:21;;;;;;;18.62;7.78;;;;;;;3.77;77.61;100189.47;1771266;80;21015;-72
2022/01/28 05:30:45;;;;;;;34.13;9.95;;;;;;;3.76;77.56;100189.15;1808090;78;21049;-71
2022/01/28 05:33:11;;;;;;;31.85;9.95;;;;;;;3.73;77.55;100194.17;1768667;80;21191;-71
2022/01/28 05:35:37;;;;;;;34.53;11.90;;;;;;;3.71;77.54;100192.65;1808703;78;21491;-71
2022/01/28 05:38:03;;;;;;;21.37;7.20;;;;;;;3.70;77.52;100204.16;1755224;81;20999;-72
2022/01/28 05:40:29;;;;;;;26.68;7.62;;;;;;;3.67;77.51;100199.14;1804516;78;21023;-71
2022/01/28 05:42:55;;;;;;;37.48;9.00;;;;;;;3.68;77.49;100206.09;1767744;81;20897;-72
2022/01/28 05:45:21;;;;;;;16.40;5.00;;;;;;;3.66;77.50;100207.53;1806893;78;21102;-72
2022/01/28 05:47:47;;;;;;;12.45;4.22;;;;;;;3.65;77.49;100218.23;1791678;78;21040;-71
2022/01/28 05:50:13;;;;;;;15.85;4.30;;;;;;;3.64;77.48;100206.84;1790697;79;21008;-71
2022/01/28 05:52:39;;;;;;;15.88;4.12;;;;;;;3.63;77.52;100220.14;1751703;81;21022;-71
2022/01/28 05:55:06;;;;;;;20.35;4.60;;;;;;;3.61;77.56;100211.54;1798843;79;20955;-71
2022/01/28 05:57:32;;;;;;;19.87;3.83;;;;;;;3.59;77.60;100214.80;1767801;81;21774;-71
2022/01/28 05:59:58;;;;;;;15.55;4.62;;;;;;;3.58;77.63;100235.53;1768410;81;21044;-72
2022/01/28 06:02:24;;;;;;;12.07;2.92;;;;;;;3.59;77.64;100224.03;1790707;79;20966;-71
2022/01/28 06:04:50;;;;;;;34.25;11.65;;;;;;;3.58;77.65;100236.84;1792807;78;20944;-72
2022/01/28 06:07:19;;;;;;;31.93;9.05;;;;;;;3.58;77.67;100252.67;1804268;78;20973;-72
2022/01/28 06:09:44;;;;;;;12.88;3.60;;;;;;;3.58;77.71;100257.46;1828253;78;21775;-71
2022/01/28 06:12:11;;;;;;;17.57;5.00;;;;;;;3.57;77.70;100249.67;1807176;78;21450;-71
2022/01/28 06:14:36;;;;;;;16.95;3.70;;;;;;;3.57;77.74;100263.69;1807515;78;21531;-71
2022/01/28 06:17:03;;;;;;;14.47;4.35;;;;;;;3.56;77.76;100274.35;1826816;78;21256;-71
2022/01/28 06:19:29;;;;;;;11.60;3.10;;;;;;;3.57;77.76;100278.67;1815578;78;21051;-71
2022/01/28 06:21:55;;;;;;;13.58;3.40;;;;;;;3.57;77.79;100276.03;1796119;79;21061;-72
2022/01/28 06:24:21;;;;;;;29.70;7.33;;;;;;;3.58;77.81;100278.55;1799995;78;20966;-71
2022/01/28 06:26:47;;;;;;;22.93;6.55;;;;;;;3.58;77.82;100284.30;1825333;78;20860;-71
2022/01/28 06:29:13;;;;;;;17.70;5.20;;;;;;;3.58;77.86;100294.85;1826520;78;21049;-71
2022/01/28 06:31:41;;;;;;;21.70;5.72;;;;;;;3.57;77.87;100294.48;1826690;78;21077;-71
2022/01/28 06:34:07;;;;;;;17.92;4.17;;;;;;;3.59;77.88;100311.03;1826781;78;21482;-71
2022/01/28 06:36:33;;;;;;;15.18;3.50;;;;;;;3.60;77.91;100324.55;1826742;78;21487;-71
2022/01/28 06:38:59;;;;;;;18.12;5.35;;;;;;;3.59;77.92;100329.48;1808999;78;21004;-72
2022/01/28 06:41:25;;;;;;;24.52;4.42;;;;;;;3.59;77.96;100334.77;1821693;78;21424;-71
2022/01/28 06:43:51;;;;;;;21.00;4.95;;;;;;;3.58;77.99;100332.60;1827669;78;21576;-72
2022/01/28 06:46:17;;;;;;;18.65;4.35;;;;;;;3.57;78.04;100343.27;1826501;78;21165;-71
2022/01/28 06:48:43;;;;;;;17.35;5.37;;;;;;;3.57;78.05;100348.53;1828442;78;20994;-72
2022/01/28 06:51:09;;;;;;;28.20;6.35;;;;;;;3.56;78.11;100352.13;1818595;77;21028;-72
2022/01/28 06:53:35;;;;;;;15.15;4.25;;;;;;;3.54;78.15;100360.17;1862133;77;20978;-72
2022/01/28 06:56:01;;;;;;;20.88;5.05;;;;;;;3.52;78.21;100365.56;1862303;77;21045;-71
2022/01/28 06:58:27;;;;;;;18.07;5.00;;;;;;;3.51;78.26;100366.55;1860025;77;21138;-72
2022/01/28 07:00:53;;;;;;;17.45;4.15;;;;;;;3.50;78.33;100375.41;1795862;79;21057;-71
2022/01/28 07:03:19;;;;;;;17.02;3.77;;;;;;;3.51;78.36;100381.05;1795903;79;20978;-71
2022/01/28 07:05:45;;;;;;;18.92;4.47;;;;;;;3.53;78.41;100388.34;1795924;79;21034;-71
2022/01/28 07:08:12;;;;;;;16.90;4.47;;;;;;;3.54;78.44;100389.18;1793764;79;21022;-71
2022/01/28 07:10:38;;;;;;;21.77;4.90;;;;;;;3.52;78.48;100384.02;1792602;78;21201;-71
2022/01/28 07:13:04;;;;;;;30.27;6.55;;;;;;;3.55;78.51;100397.93;1825366;78;21018;-71
2022/01/28 07:15:30;;;;;;;16.93;4.65;;;;;;;3.52;78.55;100398.52;1792812;80;21474;-71
2022/01/28 07:18:01;;;;;;;22.52;5.72;;;;;;;3.51;78.60;100386.32;1792949;80;20942;-71
2022/01/28 07:20:29;;;;;;;22.13;6.83;;;;;;;3.51;78.64;100413.16;1825254;78;20994;-71
2022/01/28 07:22:55;;;;;;;75.70;25.40;;;;;;;3.52;78.69;100424.04;1792768;80;21771;-71
2022/01/28 07:25:21;;;;;;;51.53;12.73;;;;;;;3.51;78.73;100421.91;1792738;80;21082;-71
2022/01/28 07:27:47;;;;;;;28.65;6.85;;;;;;;3.48;78.79;100424.77;1793068;80;21360;-71
2022/01/28 07:30:14;;;;;;;12.43;3.65;;;;;;;3.48;78.83;100434.50;1790935;80;21022;-71
2022/01/28 07:32:41;;;;;;;17.95;4.40;;;;;;;3.49;78.88;100422.97;1825368;78;21053;-71
2022/01/28 07:35:08;;;;;;;17.92;4.05;;;;;;;3.51;78.92;100441.69;1792872;80;21784;-71
2022/01/28 07:37:35;;;;;;;15.08;3.83;;;;;;;3.52;78.95;100442.49;1792231;80;21428;-71
2022/01/28 07:40:03;;;;;;;25.95;5.08;;;;;;;3.57;78.99;100457.95;1792643;79;21069;-71
2022/01/28 07:42:34;;;;;;;23.35;5.72;;;;;;;3.57;78.99;100459.27;1792318;80;21014;-72
2022/01/28 07:44:57;;;;;;;22.50;4.67;;;;;;;3.57;79.04;100473.29;1792125;80;21495;-72
2022/01/28 07:47:23;;;;;;;21.70;6.25;;;;;;;3.59;79.06;100481.09;1792826;79;21421;-72
2022/01/28 07:49:49;;;;;;;16.60;5.67;;;;;;;3.61;79.04;100487.06;1792814;80;20964;-72
2022/01/28 07:52:15;;;;;;;26.25;8.60;;;;;;;3.62;79.05;100487.44;1792687;80;21027;-72
2022/01/28 07:54:47;;;;;;;26.17;8.93;;;;;;;3.62;79.07;100501.45;1791900;78;21026;-72
2022/01/28 07:57:09;;;;;;;28.85;10.08;;;;;;;3.62;79.10;100500.62;1831730;77;21477;-72
2022/01/28 07:59:35;;;;;;;36.68;12.03;;;;;;;3.62;79.09;100503.25;1773249;79;22053;-72
2022/01/28 08:02:01;;;;;;;40.23;11.15;;;;;;;3.63;79.12;100514.13;1792856;79;21017;-72
2022/01/28 08:04:27;;;;;;;42.30;12.35;;;;;;;3.62;79.14;100524.34;1761431;81;20974;-72
2022/01/28 08:06:53;;;;;;;33.95;13.22;;;;;;;3.61;79.19;100525.30;1792801;80;21010;-72
2022/01/28 08:09:19;;;;;;;45.28;16.40;;;;;;;3.61;79.21;100521.34;1764393;81;21063;-72
2022/01/28 08:11:45;;;;;;;33.42;9.23;;;;;;;3.61;79.23;100538.48;1802096;78;21103;-72
2022/01/28 08:14:13;;;;;;;22.55;7.50;;;;;;;3.64;79.26;100540.39;1829161;78;21447;-72
2022/01/28 08:16:39;;;;;;;29.80;7.90;;;;;;;3.68;79.25;100535.72;1828878;77;21324;-71
2022/01/28 08:19:06;;;;;;;24.75;6.83;;;;;;;3.72;79.25;100542.42;1829065;78;21429;-72
2022/01/28 08:21:32;;;;;;;35.00;8.85;;;;;;;3.74;79.26;100556.31;1828980;78;21327;-71
2022/01/28 08:23:58;;;;;;;33.35;12.78;;;;;;;3.74;79.26;100559.80;1828638;78;21316;-71
2022/01/28 08:26:24;;;;;;;39.15;18.37;;;;;;;3.76;79.24;100563.64;1828643;78;20960;-71
2022/01/28 08:28:50;;;;;;;40.43;15.15;;;;;;;3.76;79.24;100563.16;1828927;78;20947;-71
2022/01/28 08:31:16;;;;;;;26.37;11.30;;;;;;;3.76;79.22;100579.47;1829010;78;21288;-71
2022/01/28 08:33:42;;;;;;;26.73;9.13;;;;;;;3.76;79.23;100589.54;1829010;78;20853;-71
2022/01/28 08:36:08;;;;;;;19.80;5.42;;;;;;;3.78;79.22;100594.67;1829114;78;21156;-71
2022/01/28 08:38:44;;;;;;;41.25;15.78;;;;;;;3.79;79.18;100602.95;1828549;78;20977;-71
2022/01/28 08:41:05;;;;;;;56.33;22.45;;;;;;;3.82;79.18;100607.98;1827971;77;21007;-72
2022/01/28 08:43:32;;;;;;;39.95;13.60;;;;;;;3.83;79.15;100610.52;1828640;78;20975;-72
2022/01/28 08:45:58;;;;;;;40.03;14.47;;;;;;;3.86;79.12;100610.74;1829062;78;20970;-71
2022/01/28 08:48:24;;;;;;;44.58;16.82;;;;;;;3.89;79.10;100632.91;1832030;77;21112;-72
2022/01/28 08:50:50;;;;;;;26.75;10.08;;;;;;;3.91;79.07;100624.38;1830169;77;21015;-71
2022/01/28 08:53:16;;;;;;;30.97;10.70;;;;;;;3.91;79.04;100634.94;1848740;77;21026;-72
2022/01/28 08:55:43;;;;;;;17.02;6.10;;;;;;;3.97;78.97;100637.11;1822682;77;20992;-72
2022/01/28 08:58:10;;;;;;;27.15;7.58;;;;;;;4.02;78.85;100654.72;1815381;79;21028;-72
2022/01/28 09:00:36;;;;;;;19.77;5.03;;;;;;;4.07;78.77;100645.97;1803988;79;21794;-72
2022/01/28 09:03:02;;;;;;;26.42;5.00;;;;;;;4.09;78.69;100650.63;1796246;79;20978;-71
2022/01/28 09:05:33;;;;;;;28.38;6.37;;;;;;;4.13;78.62;100658.66;1764980;81;21017;-71
2022/01/28 09:07:59;;;;;;;32.10;6.40;;;;;;;4.18;78.46;100659.16;1816056;78;21451;-72
2022/01/28 09:10:29;;;;;;;29.70;8.85;;;;;;;4.23;78.38;100658.28;1817398;78;21489;-72
2022/01/28 09:15:36;;;;;;;40.90;11.55;;;;;;;4.36;78.06;100664.24;1811933;79;21031;-72
2022/01/28 09:18:03;;;;;;;22.35;5.90;;;;;;;4.42;77.93;100670.38;1811461;79;21023;-72
2022/01/28 09:20:30;;;;;;;38.83;9.48;;;;;;;4.47;77.83;100668.66;1811817;79;21051;-72
2022/01/28 09:22:58;;;;;;;37.03;10.78;;;;;;;4.50;77.71;100701.45;1812132;79;21054;-71
2022/01/28 09:25:24;;;;;;;44.05;13.70;;;;;;;4.51;77.60;100693.38;1811735;79;21975;-72
2022/01/28 09:27:50;;;;;;;44.75;10.98;;;;;;;4.52;77.48;100692.43;1811092;78;20949;-71
2022/01/28 09:30:16;;;;;;;21.20;6.15;;;;;;;4.50;77.37;100702.26;1805116;78;20974;-72
2022/01/28 09:32:42;;;;;;;14.58;3.98;;;;;;;4.47;77.24;100706.95;1816661;78;20995;-72
2022/01/28 09:35:08;;;;;;;18.35;5.47;;;;;;;4.44;77.14;100709.84;1825171;78;20979;-70
2022/01/28 09:37:34;;;;;;;16.48;4.35;;;;;;;4.41;76.98;100720.65;1825336;78;21132;-70
2022/01/28 09:40:02;;;;;;;26.85;8.68;;;;;;;4.42;76.86;100727.62;1813867;78;20982;-71
2022/01/28 09:42:31;;;;;;;33.92;11.33;;;;;;;4.44;76.66;100734.45;1784460;80;21054;-71
2022/01/28 09:44:56;;;;;;;24.65;6.33;;;;;;;4.45;76.53;100730.85;1804725;78;20919;-72
2022/01/28 09:47:22;;;;;;;23.47;5.20;;;;;;;4.46;76.42;100729.91;1795445;79;21002;-71
2022/01/28 09:49:48;;;;;;;27.00;6.08;;;;;;;4.47;76.25;100743.91;1806142;78;21175;-71
2022/01/28 09:52:14;;;;;;;21.68;6.20;;;;;;;4.47;76.17;100735.99;1784328;79;21038;-71
2022/01/28 09:54:43;;;;;;;16.65;4.12;;;;;;;4.46;76.02;100745.74;1794385;78;21025;-72
2022/01/28 09:57:08;;;;;;;28.07;7.83;;;;;;;4.48;75.82;100746.45;1811506;78;20955;-72
2022/01/28 09:59:37;;;;;;;15.35;3.72;;;;;;;4.49;75.67;100749.93;1825422;78;20955;-72
2022/01/28 10:02:03;;;;;;;11.25;3.12;;;;;;;4.51;75.53;100764.69;1827924;77;21992;-72
2022/01/28 10:04:29;;;;;;;14.70;3.55;;;;;;;4.56;75.41;100774.05;1826474;77;20967;-72
2022/01/28 10:06:56;;;;;;;17.57;5.05;;;;;;;4.59;75.33;100780.40;1777238;79;21030;-72
2022/01/28 10:09:23;;;;;;;28.62;7.62;;;;;;;4.63;75.23;100780.52;1752615;81;21028;-72
2022/01/28 10:11:53;;;;;;;24.80;8.30;;;;;;;4.63;75.10;100785.80;1793294;79;21043;-71
2022/01/28 10:14:24;;;;;;;21.73;6.58;;;;;;;4.65;75.03;100793.11;1768684;80;21337;-72
2022/01/28 10:16:59;;;;;;;18.82;5.05;;;;;;;4.70;74.92;100784.34;1785048;79;21486;-71
2022/01/28 10:19:27;;;;;;;15.45;3.90;;;;;;;4.73;74.80;100795.51;1768738;79;21085;-72
2022/01/28 10:21:53;;;;;;;13.90;4.25;;;;;;;4.73;74.68;100802.59;1774483;80;21585;-71
2022/01/28 10:24:24;;;;;;;16.95;5.42;;;;;;;4.76;74.57;100806.30;1774544;80;21549;-71
2022/01/28 10:27:06;;;;;;;26.85;10.23;;;;;;;4.76;74.49;100808.95;1772357;79;21816;-71
2022/01/28 10:29:34;;;;;;;24.37;8.05;;;;;;;4.75;74.40;100812.57;1744023;82;21550;-72
2022/01/28 10:32:06;;;;;;;26.33;9.28;;;;;;;4.79;74.32;100823.22;1743737;82;21518;-72
2022/01/28 10:34:35;;;;;;;42.95;15.90;;;;;;;4.77;74.24;100824.69;1759126;80;21510;-72
2022/01/28 10:37:25;;;;;;;31.57;16.70;;;;;;;4.77;74.17;100822.52;1783023;79;21633;-72
2022/01/28 10:40:07;;;;;;;;;;;;;;;4.76;74.13;100829.60;1777214;80;21146;-72
2022/01/28 10:42:48;;;;;;;30.82;9.25;;;;;;;4.74;74.15;100839.94;1761650;79;20178;-72
2022/01/28 10:45:14;;;;;;;14.47;4.17;;;;;;;4.72;74.12;100840.53;1773070;80;20975;-72
2022/01/28 10:47:44;;;;;;;33.05;13.35;;;;;;;4.68;74.08;100845.72;1766839;79;21022;-73
2022/01/28 10:50:31;;;;;;;29.45;8.33;;;;;;;4.67;74.06;100847.99;1743376;82;21037;-72
2022/01/28 10:53:10;;;;;;;30.02;9.85;;;;;;;4.64;73.99;100843.80;1767203;81;21142;-72
2022/01/28 10:55:40;;;;;;;63.87;20.62;;;;;;;4.61;73.94;100851.94;1765582;81;21009;-72
2022/01/28 10:58:12;;;;;;;46.18;15.80;;;;;;;4.62;73.94;100858.91;1742737;81;21105;-73
2022/01/28 11:00:41;;;;;;;80.65;30.95;;;;;;;4.64;73.93;100865.41;1768192;79;21010;-72
2022/01/28 11:03:10;;;;;;;65.52;25.55;;;;;;;4.64;73.92;100861.45;1716258;82;21100;-72
2022/01/28 11:05:37;;;;;;;44.83;14.47;;;;;;;4.65;73.92;100871.88;1769753;79;21118;-72
2022/01/28 11:08:05;;;;;;;36.00;12.95;;;;;;;4.65;73.90;100865.27;1777303;80;20997;-71
2022/01/28 11:10:31;;;;;;;36.25;13.40;;;;;;;4.60;73.89;100869.25;1777280;79;21029;-72
2022/01/28 11:12:59;;;;;;;25.20;7.50;;;;;;;4.58;73.87;100873.31;1772778;80;20981;-72
2022/01/28 11:15:25;;;;;;;23.62;7.90;;;;;;;4.56;73.85;100873.93;1790899;80;20970;-72
2022/01/28 11:17:51;;;;;;;31.95;11.35;;;;;;;4.53;73.84;100873.70;1764809;80;21400;-71
2022/01/28 11:20:31;;;;;;;22.70;6.55;;;;;;;4.51;73.80;100872.95;1764586;81;21042;-72
2022/01/28 11:23:20;;;;;;;20.27;5.67;;;;;;;4.49;73.78;100876.21;1765975;81;21073;-72
2022/01/28 11:26:07;;;;;;;17.80;4.95;;;;;;;4.51;73.74;100895.41;1786675;80;21035;-72
2022/01/28 11:28:48;;;;;;;16.32;4.37;;;;;;;4.51;73.74;100892.77;1740064;78;20939;-72
2022/01/28 11:31:14;;;;;;;17.50;4.15;;;;;;;4.51;73.71;100915.69;1755534;81;21147;-72
2022/01/28 11:33:49;;;;;;;28.10;7.53;;;;;;;4.49;73.65;100895.17;1794766;78;20978;-72
2022/01/28 11:36:34;;;;;;;38.48;11.70;;;;;;;4.46;73.67;100904.18;1755552;81;21017;-71
2022/01/28 11:39:09;;;;;;;27.40;9.23;;;;;;;4.46;73.68;100912.58;1790992;80;20999;-73
2022/01/28 11:41:36;;;;;;;43.33;13.40;;;;;;;4.45;73.66;100922.30;1753931;81;21041;-72
2022/01/28 11:44:03;;;;;;;35.03;8.58;;;;;;;4.43;73.62;100914.95;1790348;80;21192;-72
2022/01/28 11:46:36;;;;;;;21.97;5.58;;;;;;;4.44;73.62;100925.89;1755191;81;21520;-72
2022/01/28 11:49:04;;;;;;;18.52;5.83;;;;;;;4.46;73.62;100928.42;1790279;78;21527;-72
2022/01/28 11:51:40;;;;;;;16.10;4.45;;;;;;;4.47;73.62;100932.25;1772729;80;21433;-72
2022/01/28 11:54:11;;;;;;;37.83;13.03;;;;;;;4.46;73.62;100942.47;1832944;77;21089;-72
2022/01/28 11:56:42;;;;;;;27.58;12.58;;;;;;;4.45;73.59;100942.10;1765064;79;21620;-72
2022/01/28 11:59:09;;;;;;;49.50;19.42;;;;;;;4.44;73.61;100942.20;1774715;80;21464;-73
2022/01/28 12:01:44;;;;;;;27.67;9.48;;;;;;;4.43;73.60;100950.59;1822958;78;20959;-73
2022/01/28 12:04:32;;;;;;;25.43;9.63;;;;;;;4.42;73.62;100954.22;1765452;80;21042;-73
2022/01/28 12:07:14;;;;;;;31.05;8.28;;;;;;;4.41;73.63;100960.92;1810546;78;21049;-73
2022/01/28 12:09:53;;;;;;;26.20;8.38;;;;;;;4.40;73.66;100964.04;1772715;79;21043;-73
2022/01/28 12:12:26;;;;;;;21.33;5.22;;;;;;;4.38;73.64;100963.33;1734989;81;21311;-73
2022/01/28 12:15:05;;;;;;;19.62;6.28;;;;;;;4.36;73.62;100963.91;1735859;81;20993;-74
2022/01/28 12:17:36;;;;;;;18.05;6.40;;;;;;;4.33;73.59;100968.58;1734585;82;21043;-73
2022/01/28 12:20:23;;;;;;;14.00;3.85;;;;;;;4.31;73.58;100987.66;1735771;82;21004;-73
2022/01/28 12:23:14;;;;;;;35.15;8.35;;;;;;;4.30;73.58;100973.63;1735680;82;21026;-73
2022/01/28 12:25:46;;;;;;;24.57;8.53;;;;;;;4.29;73.62;100998.33;1735385;82;21499;-74
2022/01/28 12:28:32;;;;;;;28.73;5.53;;;;;;;4.30;73.64;100999.17;1735609;82;21524;-73
2022/01/28 12:31:01;;;;;;;29.20;8.25;;;;;;;4.29;73.69;100998.33;1735629;82;21003;-73
2022/01/28 12:33:29;;;;;;;22.80;4.70;;;;;;;4.29;73.71;100997.01;1755502;81;21015;-73
2022/01/28 12:35:57;;;;;;;28.87;6.58;;;;;;;4.30;73.73;101006.63;1752710;81;21523;-73
2022/01/28 12:38:29;;;;;;;31.20;6.40;;;;;;;4.30;73.75;101009.26;1735523;82;21023;-73
2022/01/28 12:40:57;;;;;;;31.25;10.18;;;;;;;4.29;73.75;101014.17;1757519;81;21479;-72
2022/01/28 12:43:24;;;;;;;38.15;8.05;;;;;;;4.26;73.75;101014.41;1765656;81;21046;-73
2022/01/28 12:46:11;;;;;;;41.53;9.38;;;;;;;4.28;73.80;101021.75;1766216;81;21390;-72
2022/01/28 12:48:51;;;;;;;21.10;5.83;;;;;;;4.30;73.84;101025.10;1765316;81;21167;-73
2022/01/28 12:51:17;;;;;;;;;;;;;;;4.33;73.90;101011.66;1751698;80;21503;-73